Time;durP1;ratioP1;P1;durP2;ratioP2;P2;SDS_P1;SDS_P2;PMS_P1;PMS_P2;Temp;Humidity;BMP_temperature;BMP_pressure;BME280_temperature;BME280_humidity;BME280_pressure;Samples;Min_cycle;Max_cycle;Signal;HPM_P1;HPM_P2
2022/01/01 00:01:34;;;;;;;10.37;6.93;;;;;;;7.73;92.87;99065.28;4953567;29;20219;-88
2022/01/01 00:04:00;;;;;;;11.67;6.80;;;;;;;7.46;92.86;99028.66;4968952;29;20173;-88
2022/01/01 00:06:25;;;;;;;11.17;6.70;;;;;;;7.54;93.18;99032.41;4951971;29;20192;-88
2022/01/01 00:08:52;;;;;;;11.23;6.60;;;;;;;7.95;92.90;99120.13;4972195;29;20204;-88
2022/01/01 00:11:17;;;;;;;9.50;6.07;;;;;;;8.04;93.15;99147.44;4975580;28;20169;-89
2022/01/01 00:13:43;;;;;;;9.23;5.90;;;;;;;9.50;93.94;99378.38;4953117;29;20192;-88
2022/01/01 00:16:09;;;;;;;10.37;6.30;;;;;;;6.57;92.98;98899.94;4967712;29;20179;-87
2022/01/01 00:18:36;;;;;;;10.80;6.67;;;;;;;8.96;94.02;99315.09;4968737;29;20192;-88
2022/01/01 00:21:03;;;;;;;9.43;5.83;;;;;;;6.54;93.67;98906.53;4972188;29;20189;-88
2022/01/01 00:23:28;;;;;;;9.93;5.80;;;;;;;8.47;94.76;99264.78;4969151;29;20207;-87
2022/01/01 00:25:54;;;;;;;10.77;6.20;;;;;;;6.95;95.15;99026.03;4967661;29;20681;-89
2022/01/01 00:28:19;;;;;;;8.70;5.60;;;;;;;9.11;96.09;99387.44;4965399;28;20184;-88
2022/01/01 00:30:45;;;;;;;9.53;5.10;;;;;;;7.59;95.60;99136.78;4966215;29;20165;-89
2022/01/01 00:33:10;;;;;;;8.50;5.43;;;;;;;7.19;94.84;99042.38;4967374;29;20252;-89
2022/01/01 00:35:36;;;;;;;8.80;5.00;;;;;;;8.55;95.36;99260.97;4951245;29;20200;-88
2022/01/01 00:38:02;;;;;;;8.80;5.20;;;;;;;7.41;94.56;99061.97;4966442;28;20216;-89
2022/01/01 00:40:27;;;;;;;10.17;5.53;;;;;;;8.04;94.34;99180.19;4971570;29;20267;-89
2022/01/01 00:42:53;;;;;;;7.17;4.97;;;;;;;7.39;94.40;99056.81;4971854;29;20196;-89
2022/01/01 00:45:23;;;;;;;8.30;5.30;;;;;;;7.14;93.91;99001.88;4952000;29;20183;-88
2022/01/01 00:47:49;;;;;;;7.17;4.50;;;;;;;8.23;93.81;99203.88;4968190;29;20232;-88
2022/01/01 00:50:16;;;;;;;8.47;4.73;;;;;;;8.65;93.81;99232.88;4970049;29;20243;-89
2022/01/01 00:52:44;;;;;;;6.30;4.17;;;;;;;7.08;92.97;98957.91;4954971;29;20180;-89
2022/01/01 00:55:10;;;;;;;8.87;4.80;;;;;;;10.25;92.84;99476.31;4952387;29;20288;-89
2022/01/01 00:57:36;;;;;;;8.07;4.90;;;;;;;9.74;92.57;99407.34;4952087;29;20168;-89
2022/01/01 01:00:02;;;;;;;6.87;4.40;;;;;;;7.01;91.83;98934.09;4969474;29;20231;-89
2022/01/01 01:02:27;;;;;;;6.97;3.93;;;;;;;7.17;92.32;98947.44;4970821;28;20188;-90
2022/01/01 01:04:53;;;;;;;7.70;4.23;;;;;;;7.41;92.10;99009.06;4968394;29;20642;-91
2022/01/01 01:07:18;;;;;;;6.37;3.83;;;;;;;7.19;91.96;98964.34;4950165;29;20173;-87
2022/01/01 01:09:44;;;;;;;5.73;3.97;;;;;;;7.70;92.33;99050.00;4967223;29;20176;-89
2022/01/01 01:12:10;;;;;;;7.80;4.27;;;;;;;7.74;91.96;99058.59;4970627;29;20180;-90
2022/01/01 01:14:40;;;;;;;6.50;4.40;;;;;;;8.78;92.42;99225.09;4970826;29;20216;-90
2022/01/01 01:17:07;;;;;;;6.73;4.43;;;;;;;7.79;92.44;99078.97;4967205;29;20179;-88
2022/01/01 01:19:32;;;;;;;7.20;4.70;;;;;;;7.23;92.27;98962.84;4966670;29;20176;-87
2022/01/01 01:21:58;;;;;;;7.10;4.80;;;;;;;8.80;93.07;99232.75;4972021;29;20208;-88
2022/01/01 01:24:26;;;;;;;9.67;4.40;;;;;;;9.57;92.79;99352.59;4953599;29;20172;-89
2022/01/01 01:26:53;;;;;;;7.07;5.07;;;;;;;7.80;92.82;99038.72;4971398;29;20180;-89
2022/01/01 01:29:19;;;;;;;8.87;5.37;;;;;;;8.49;93.00;99149.66;4955420;29;20237;-89
2022/01/01 01:31:47;;;;;;;15.87;9.07;;;;;;;8.66;93.47;99181.63;4954070;29;20216;-90
2022/01/01 01:34:14;;;;;;;14.37;7.00;;;;;;;8.24;95.15;99152.63;4968727;29;20212;-88
2022/01/01 01:36:40;;;;;;;17.77;8.83;;;;;;;8.96;95.43;99297.44;4968486;29;20188;-88
2022/01/01 01:39:05;;;;;;;15.93;9.27;;;;;;;7.65;95.28;99085.84;4949288;29;20176;-88
2022/01/01 01:41:31;;;;;;;16.47;8.53;;;;;;;6.32;96.26;98920.44;4951213;29;20212;-88
2022/01/01 01:43:58;;;;;;;12.67;8.33;;;;;;;6.72;96.65;99024.84;4953459;29;20165;-89
2022/01/01 01:46:26;;;;;;;13.47;8.70;;;;;;;6.84;97.87;99032.16;4969029;29;20172;-88
2022/01/01 01:48:52;;;;;;;19.60;10.90;;;;;;;8.17;97.79;99240.53;4968094;28;20200;-89
2022/01/01 01:51:18;;;;;;;14.43;8.80;;;;;;;6.45;97.89;98961.41;4966664;29;20193;-89
2022/01/01 01:53:43;;;;;;;16.50;9.57;;;;;;;6.61;98.03;98997.38;4968858;29;20173;-89
2022/01/01 01:56:11;;;;;;;15.77;9.03;;;;;;;6.41;98.27;98962.00;4970123;29;20265;-88
2022/01/01 01:58:38;;;;;;;14.53;9.50;;;;;;;6.50;98.89;98999.34;4969690;29;20161;-88
2022/01/01 02:01:23;;;;;;;15.07;9.07;;;;;;;7.57;99.02;99183.69;4969702;29;20180;-88
2022/01/01 02:03:49;;;;;;;14.40;8.77;;;;;;;6.21;98.72;98970.13;4969589;29;20193;-89
2022/01/01 02:06:16;;;;;;;13.80;8.60;;;;;;;7.94;99.78;99251.09;4968307;29;20191;-88
2022/01/01 02:08:43;;;;;;;15.30;9.07;;;;;;;5.97;100.00;98918.56;4969736;29;20634;-87
2022/01/01 02:11:08;;;;;;;17.40;9.47;;;;;;;5.66;100.00;98927.72;4951242;29;20244;-89
2022/01/01 02:18:51;;;;;;;14.53;9.10;;;;;;;9.24;100.00;99540.44;4929429;29;20190;-88
2022/01/01 02:21:18;;;;;;;17.70;9.83;;;;;;;5.85;100.00;98958.97;4927167;29;20190;-88
2022/01/01 02:23:46;;;;;;;22.20;12.40;;;;;;;6.29;100.00;99031.72;4925475;29;20361;-89
2022/01/01 02:26:15;;;;;;;15.43;9.70;;;;;;;6.90;100.00;99153.22;4927179;29;20155;-88
2022/01/01 02:28:42;;;;;;;18.00;10.57;;;;;;;7.56;100.00;99353.25;4927327;29;20232;-89
2022/01/01 02:31:09;;;;;;;15.40;8.60;;;;;;;4.98;100.00;98876.19;4944727;29;20669;-88
2022/01/01 02:33:38;;;;;;;16.83;8.33;;;;;;;5.88;100.00;99066.28;4930499;29;20390;-88
2022/01/01 02:36:05;;;;;;;15.23;8.87;;;;;;;4.86;100.00;98853.81;4927828;29;20673;-89
2022/01/01 02:38:33;;;;;;;16.53;8.63;;;;;;;7.22;100.00;99271.63;4928224;29;20562;-88
2022/01/01 02:40:59;;;;;;;13.87;8.27;;;;;;;7.01;100.00;99298.13;4943169;29;20279;-89
2022/01/01 02:43:25;;;;;;;15.67;9.17;;;;;;;8.49;100.00;99512.09;4933072;29;20181;-87
2022/01/01 02:45:51;;;;;;;27.00;13.50;;;;;;;6.07;100.00;99091.66;4920389;29;20194;-90
2022/01/01 02:48:18;;;;;;;22.23;12.80;;;;;;;5.18;100.00;98955.97;4927619;29;20273;-89
2022/01/01 02:50:44;;;;;;;26.43;15.13;;;;;;;5.73;100.00;99028.59;4929747;29;20171;-88
2022/01/01 02:53:16;;;;;;;16.80;10.43;;;;;;;6.48;100.00;99142.56;4931239;29;20219;-88
2022/01/01 02:55:44;;;;;;;16.97;9.87;;;;;;;4.82;100.00;98820.94;4950248;29;20197;-89
2022/01/01 02:58:10;;;;;;;13.93;8.00;;;;;;;6.05;100.00;99042.97;4951361;29;20245;-88
2022/01/01 03:00:37;;;;;;;10.73;6.77;;;;;;;6.00;100.00;99019.25;4966562;28;20176;-89
2022/01/01 03:03:03;;;;;;;11.77;7.03;;;;;;;6.09;100.00;99039.84;4966414;29;20176;-90
2022/01/01 03:05:30;;;;;;;17.60;10.00;;;;;;;7.72;100.00;99305.41;4970738;29;20183;-88
2022/01/01 03:07:56;;;;;;;14.67;8.73;;;;;;;5.67;100.00;98924.41;4968318;29;20212;-89
2022/01/01 03:10:22;;;;;;;10.33;6.90;;;;;;;6.61;100.00;99088.78;4966079;29;20208;-87
2022/01/01 03:12:47;;;;;;;11.80;6.90;;;;;;;5.40;100.00;98880.22;4966461;29;20186;-88
2022/01/01 03:15:13;;;;;;;9.60;5.60;;;;;;;9.37;100.00;99571.44;4969165;29;20215;-89
2022/01/01 03:17:38;;;;;;;7.50;4.33;;;;;;;7.54;100.00;99150.78;4970401;29;20184;-87
2022/01/01 03:20:05;;;;;;;9.13;4.40;;;;;;;9.23;99.37;99351.81;4959169;29;20189;-88
2022/01/01 03:22:32;;;;;;;7.90;5.27;;;;;;;8.23;98.11;99163.53;4969396;28;20537;-89
2022/01/01 03:24:59;;;;;;;8.73;5.60;;;;;;;9.15;97.81;99302.56;4972003;29;20168;-89
2022/01/01 03:27:25;;;;;;;13.23;7.87;;;;;;;10.44;97.19;99515.19;4971087;29;20208;-88
2022/01/01 03:29:50;;;;;;;12.27;7.50;;;;;;;6.95;96.82;98932.94;4970909;29;20156;-89
2022/01/01 03:32:16;;;;;;;10.47;5.90;;;;;;;10.13;97.15;99561.75;4951675;29;20195;-88
2022/01/01 03:34:43;;;;;;;10.03;6.27;;;;;;;5.93;97.54;98861.44;4950653;29;20211;-87
2022/01/01 03:37:09;;;;;;;12.77;6.50;;;;;;;6.32;98.44;98945.56;4968951;29;20280;-88
2022/01/01 03:39:34;;;;;;;10.73;6.90;;;;;;;6.93;98.71;99020.03;4969507;28;20236;-90
2022/01/01 03:42:01;;;;;;;12.43;6.80;;;;;;;7.45;99.07;99142.75;4968414;29;20191;-89
2022/01/01 03:44:27;;;;;;;20.13;9.87;;;;;;;6.35;97.62;98888.78;4952194;29;20176;-88
2022/01/01 03:46:59;;;;;;;9.33;5.57;;;;;;;7.88;97.26;99124.78;4969110;29;20194;-90
2022/01/01 03:49:25;;;;;;;6.57;3.93;;;;;;;6.83;95.79;98880.34;4969389;29;20189;-89
2022/01/01 03:51:51;;;;;;;5.43;3.10;;;;;;;8.29;93.52;99082.31;4966658;29;20247;-89
2022/01/01 03:54:16;;;;;;;5.53;3.67;;;;;;;10.92;92.65;99477.66;4950225;29;20212;-88
2022/01/01 03:56:43;;;;;;;6.07;3.17;;;;;;;7.60;92.56;98921.91;4971414;29;20175;-88
2022/01/01 03:59:11;;;;;;;4.73;3.17;;;;;;;7.72;92.57;98962.78;4971295;29;20207;-90
2022/01/01 04:01:38;;;;;;;5.53;3.30;;;;;;;7.23;92.93;98879.75;4971236;29;20516;-88
2022/01/01 04:04:04;;;;;;;6.43;3.80;;;;;;;6.72;93.48;98820.25;4952270;29;20594;-89
2022/01/01 04:06:29;;;;;;;6.87;4.10;;;;;;;7.86;94.60;99020.50;4950189;29;20185;-89
2022/01/01 04:08:55;;;;;;;7.13;4.10;;;;;;;8.37;94.71;99126.41;4966468;29;20239;-89
2022/01/01 04:11:21;;;;;;;6.63;4.50;;;;;;;6.63;94.38;98794.63;4952765;29;20203;-89
2022/01/01 04:13:47;;;;;;;15.47;8.30;;;;;;;7.47;94.82;98943.91;4954584;29;20185;-89
2022/01/01 04:16:13;;;;;;;15.73;9.87;;;;;;;7.44;94.92;98969.81;4969772;29;20614;-88
2022/01/01 04:18:38;;;;;;;10.53;7.37;;;;;;;8.63;94.82;99131.00;4970857;29;20183;-89
2022/01/01 04:21:09;;;;;;;10.30;6.03;;;;;;;7.96;94.31;98972.28;4972937;29;20165;-88
2022/01/01 04:23:35;;;;;;;5.43;3.27;;;;;;;7.69;94.24;98911.41;4953938;29;20184;-89
2022/01/01 04:26:02;;;;;;;3.30;2.30;;;;;;;8.62;92.51;98974.53;4970252;29;20172;-88
2022/01/01 04:28:28;;;;;;;3.73;2.47;;;;;;;7.98;90.94;98820.34;4970906;29;20176;-90
2022/01/01 04:30:54;;;;;;;3.10;1.97;;;;;;;8.50;88.75;98853.75;4971031;29;20181;-88
2022/01/01 04:33:19;;;;;;;3.93;2.47;;;;;;;8.33;88.17;98809.28;4968377;29;20189;-87
2022/01/01 04:35:46;;;;;;;4.03;2.83;;;;;;;10.70;88.66;99260.66;4953085;29;20299;-89
2022/01/01 04:38:28;;;;;;;3.90;2.33;;;;;;;8.43;88.27;98850.91;4974255;29;20212;-88
2022/01/01 04:40:54;;;;;;;4.67;2.33;;;;;;;9.97;88.82;99104.97;4974142;28;20224;-88
2022/01/01 04:43:20;;;;;;;4.20;2.70;;;;;;;10.62;88.02;99196.19;4972276;29;20212;-88
2022/01/01 04:45:47;;;;;;;3.53;2.07;;;;;;;8.93;87.07;98914.47;4952879;29;20273;-90
2022/01/01 04:48:12;;;;;;;2.77;2.00;;;;;;;8.27;87.01;98809.91;4969606;29;20244;-88
2022/01/01 04:50:38;;;;;;;4.57;2.50;;;;;;;8.60;87.04;98873.53;4969751;29;20180;-88
2022/01/01 04:53:03;;;;;;;4.33;2.43;;;;;;;10.72;88.06;99227.78;4953024;29;20188;-89
2022/01/01 04:55:29;;;;;;;4.80;2.60;;;;;;;8.55;87.32;98852.28;4968745;29;20247;-88
2022/01/01 04:57:54;;;;;;;2.93;2.10;;;;;;;10.40;86.59;99133.75;4970773;29;20172;-88
2022/01/01 05:00:20;;;;;;;3.60;2.20;;;;;;;8.81;86.14;98888.72;4969273;29;20188;-89
2022/01/01 05:02:45;;;;;;;2.80;1.93;;;;;;;8.77;86.25;98865.00;4968262;29;20180;-89
2022/01/01 05:05:11;;;;;;;4.30;2.50;;;;;;;10.83;86.69;99250.22;4967508;29;20169;-89
2022/01/01 05:07:37;;;;;;;3.83;2.47;;;;;;;8.01;87.13;98801.97;4968580;29;20169;-88
2022/01/01 05:10:03;;;;;;;4.77;3.10;;;;;;;8.68;87.69;98950.41;4969584;29;20181;-88
2022/01/01 05:12:28;;;;;;;6.33;4.10;;;;;;;11.55;88.67;99449.06;4969096;29;20177;-89
2022/01/01 05:14:54;;;;;;;5.03;2.90;;;;;;;9.38;88.82;99089.78;4967567;29;20232;-88
2022/01/01 05:17:22;;;;;;;3.60;2.63;;;;;;;8.34;88.96;98904.34;4951663;29;20177;-89
2022/01/01 05:19:48;;;;;;;4.10;2.80;;;;;;;9.78;88.73;99122.69;4969641;29;20248;-90
2022/01/01 05:22:13;;;;;;;4.37;2.60;;;;;;;8.24;88.24;98844.19;4968813;29;20196;-88
2022/01/01 05:24:39;;;;;;;5.30;3.10;;;;;;;9.35;88.54;99042.53;4951972;29;20564;-90
2022/01/01 05:27:05;;;;;;;8.97;5.67;;;;;;;10.63;89.00;99248.53;4967661;29;20177;-90
2022/01/01 05:29:31;;;;;;;12.50;7.37;;;;;;;8.92;88.59;98964.91;4953203;29;20180;-90
2022/01/01 05:31:57;;;;;;;10.27;6.00;;;;;;;8.78;87.97;98899.56;4953213;29;20661;-90
2022/01/01 05:34:22;;;;;;;9.07;5.07;;;;;;;9.79;87.61;99036.81;4967458;29;20200;-88
2022/01/01 05:36:48;;;;;;;7.23;4.37;;;;;;;8.81;87.53;98860.97;4967028;29;20188;-90
2022/01/01 05:39:13;;;;;;;4.73;3.10;;;;;;;9.19;87.75;98955.97;4967720;29;20180;-89
2022/01/01 05:41:38;;;;;;;4.30;3.13;;;;;;;10.00;88.46;99075.59;4966998;29;20212;-90
2022/01/01 05:44:04;;;;;;;4.40;2.83;;;;;;;10.05;88.59;99114.56;4971685;28;20184;-87
2022/01/01 05:46:32;;;;;;;4.63;2.67;;;;;;;8.79;88.53;98907.97;4974999;29;20189;-90
2022/01/01 05:48:58;;;;;;;7.87;4.70;;;;;;;8.46;87.88;98793.88;4970265;29;20212;-90
2022/01/01 05:51:23;;;;;;;5.77;3.17;;;;;;;11.05;88.18;99278.13;4970924;29;20228;-90
2022/01/01 05:53:50;;;;;;;4.87;3.30;;;;;;;9.29;88.25;98968.16;4970179;29;20169;-90
2022/01/01 05:56:16;;;;;;;4.23;2.97;;;;;;;10.25;88.28;99128.06;4967533;29;20193;-90
2022/01/01 05:58:43;;;;;;;6.13;3.80;;;;;;;11.10;88.44;99252.97;4970745;29;20184;-90
2022/01/01 06:01:10;;;;;;;6.17;3.97;;;;;;;10.34;87.96;99117.44;4969744;29;20261;-89
2022/01/01 06:03:35;;;;;;;6.27;3.03;;;;;;;8.49;88.01;98810.81;4969500;29;20194;-87
2022/01/01 06:06:01;;;;;;;5.93;3.20;;;;;;;10.97;88.40;99246.56;4969437;29;20511;-88
2022/01/01 06:08:28;;;;;;;9.03;4.97;;;;;;;9.77;88.08;99043.47;4952852;29;20245;-87
2022/01/01 06:10:55;;;;;;;5.23;3.33;;;;;;;11.68;88.28;99362.53;4953176;29;20173;-88
2022/01/01 06:13:21;;;;;;;5.97;3.70;;;;;;;10.10;88.61;99097.06;4969563;29;20180;-88
2022/01/01 06:15:48;;;;;;;4.97;3.40;;;;;;;10.00;88.89;99090.75;4951639;29;20196;-89
2022/01/01 06:18:13;;;;;;;4.50;3.23;;;;;;;8.55;87.90;98861.50;4969054;29;20236;-89
2022/01/01 06:20:42;;;;;;;4.60;3.00;;;;;;;9.47;87.38;99001.78;4969506;29;20181;-87
2022/01/01 06:23:07;;;;;;;5.73;3.80;;;;;;;10.05;87.81;99124.69;4968180;29;20207;-88
2022/01/01 06:25:34;;;;;;;4.60;3.10;;;;;;;10.42;87.77;99199.59;4969548;29;20187;-88
2022/01/01 06:28:00;;;;;;;6.63;3.87;;;;;;;8.45;87.61;98864.44;4969726;29;20165;-88
2022/01/01 06:30:33;;;;;;;6.33;2.80;;;;;;;9.73;88.25;99129.19;4970040;29;20716;-89
2022/01/01 06:33:18;;;;;;;4.70;3.10;;;;;;;8.82;87.97;98929.16;4968752;29;20216;-88
2022/01/01 06:35:45;;;;;;;4.67;3.03;;;;;;;12.05;88.02;99487.50;4968691;28;20203;-88
2022/01/01 06:38:12;;;;;;;5.73;3.20;;;;;;;12.04;88.54;99500.09;4969661;29;20223;-88
2022/01/01 06:40:40;;;;;;;5.93;3.03;;;;;;;12.10;88.39;99497.81;4968336;28;20247;-88
2022/01/01 06:43:07;;;;;;;5.57;3.33;;;;;;;10.08;88.00;99165.28;4969631;29;20165;-89
2022/01/01 06:45:35;;;;;;;4.03;2.77;;;;;;;9.01;88.14;98960.25;4972568;29;20180;-89
2022/01/01 06:48:01;;;;;;;4.20;3.10;;;;;;;9.97;87.14;99126.03;4973504;29;20203;-88
2022/01/01 06:50:27;;;;;;;5.40;3.43;;;;;;;9.00;87.39;98983.75;4969736;29;20181;-89
2022/01/01 06:52:53;;;;;;;6.03;4.17;;;;;;;10.75;87.36;99289.56;4969298;29;20712;-88
2022/01/01 06:55:19;;;;;;;5.87;3.77;;;;;;;8.75;86.83;98934.75;4968955;29;20268;-88
2022/01/01 06:57:45;;;;;;;10.00;6.77;;;;;;;8.36;87.03;98884.22;4970392;29;20165;-89
2022/01/01 07:00:12;;;;;;;5.13;3.50;;;;;;;8.79;86.72;98949.22;4969604;29;20172;-89
2022/01/01 07:02:49;;;;;;;6.20;3.70;;;;;;;8.27;86.34;98854.41;4969454;29;20173;-89
2022/01/01 07:05:15;;;;;;;5.93;3.53;;;;;;;8.60;86.01;98891.19;4968336;29;20175;-89
2022/01/01 07:07:41;;;;;;;6.27;3.83;;;;;;;12.28;85.88;99506.13;4967815;29;20184;-90
2022/01/01 07:10:10;;;;;;;8.07;3.40;;;;;;;11.29;84.88;99328.88;4951312;29;20165;-89
2022/01/01 07:12:36;;;;;;;7.73;4.37;;;;;;;9.97;84.85;99127.72;4967001;29;20172;-90
2022/01/01 07:15:04;;;;;;;19.50;9.77;;;;;;;8.81;83.91;98932.50;4967863;29;20192;-89
2022/01/01 07:17:30;;;;;;;5.90;3.70;;;;;;;11.16;83.08;99330.09;4968636;29;20172;-89
2022/01/01 07:19:55;;;;;;;15.30;10.63;;;;;;;9.02;82.47;98941.75;4950651;29;20172;-90
2022/01/01 07:22:21;;;;;;;7.97;4.33;;;;;;;8.95;82.48;98935.59;4950224;29;20199;-89
2022/01/01 07:24:46;;;;;;;5.30;3.33;;;;;;;10.61;82.27;99235.84;4951523;29;20231;-90
2022/01/01 07:27:12;;;;;;;3.10;2.57;;;;;;;9.41;82.00;98978.78;4967941;29;20177;-90
2022/01/01 07:29:38;;;;;;;4.90;3.53;;;;;;;10.75;82.06;99238.91;4966961;29;20180;-88
2022/01/01 07:32:04;;;;;;;4.27;3.10;;;;;;;10.63;81.98;99213.09;4951401;29;20225;-90
2022/01/01 07:34:30;;;;;;;4.87;2.83;;;;;;;11.36;81.50;99323.28;4966458;29;20196;-89
2022/01/01 07:36:56;;;;;;;3.53;2.40;;;;;;;11.51;81.21;99353.44;4968331;29;20196;-90
2022/01/01 07:39:21;;;;;;;4.17;2.63;;;;;;;12.46;81.46;99483.13;4966188;29;20236;-90
2022/01/01 07:41:47;;;;;;;4.13;2.80;;;;;;;9.04;80.64;98874.53;4967110;29;20228;-88
2022/01/01 07:44:13;;;;;;;3.53;2.27;;;;;;;11.11;80.44;99189.72;4969397;29;20188;-89
2022/01/01 07:46:39;;;;;;;4.73;3.20;;;;;;;11.09;79.70;99177.78;4968306;28;20177;-87
2022/01/01 07:49:05;;;;;;;5.07;2.90;;;;;;;11.02;79.23;99125.16;4970005;29;20168;-87
2022/01/01 07:51:33;;;;;;;4.17;2.93;;;;;;;11.98;78.73;99280.00;4959680;29;20188;-87
2022/01/01 07:53:59;;;;;;;3.73;2.40;;;;;;;9.98;78.18;98902.72;4975340;29;20171;-89
2022/01/01 07:56:25;;;;;;;5.20;3.30;;;;;;;10.25;78.38;98967.81;4975462;29;20244;-89
2022/01/01 07:58:51;;;;;;;4.47;2.87;;;;;;;13.58;78.71;99521.06;4973905;29;20519;-90
2022/01/01 08:01:16;;;;;;;3.57;2.30;;;;;;;11.56;78.33;99190.56;4955765;29;20260;-88
2022/01/01 08:03:42;;;;;;;4.70;2.73;;;;;;;10.18;78.74;98938.91;4974638;29;20559;-88
2022/01/01 08:06:08;;;;;;;3.67;2.60;;;;;;;12.40;78.56;99279.00;4973209;29;20172;-89
2022/01/01 08:08:35;;;;;;;5.40;3.67;;;;;;;12.51;78.29;99283.56;4968538;29;20263;-89
2022/01/01 08:11:00;;;;;;;4.27;2.83;;;;;;;12.54;78.17;99311.59;4969533;29;20180;-89
2022/01/01 08:13:26;;;;;;;4.30;2.90;;;;;;;10.48;77.94;98918.94;4973308;29;20179;-90
2022/01/01 08:15:54;;;;;;;5.10;3.37;;;;;;;12.67;78.62;99316.28;4957219;29;20289;-90
2022/01/01 08:18:20;;;;;;;6.33;3.10;;;;;;;10.74;78.59;98951.09;4972513;29;20173;-88
2022/01/01 08:20:46;;;;;;;5.80;4.00;;;;;;;11.29;78.39;99054.38;4972282;29;20169;-89
2022/01/01 08:23:12;;;;;;;8.53;5.13;;;;;;;10.77;78.99;98974.00;4971717;29;20165;-90
2022/01/01 08:25:40;;;;;;;8.43;5.63;;;;;;;12.98;78.51;99306.34;4970338;29;20157;-91
2022/01/01 08:28:09;;;;;;;8.07;5.30;;;;;;;10.42;78.72;98898.47;4971420;29;20168;-89
2022/01/01 08:30:35;;;;;;;9.43;5.47;;;;;;;10.72;78.28;98907.16;4973222;29;20184;-89
2022/01/01 08:33:02;;;;;;;7.20;4.47;;;;;;;11.20;78.41;99016.91;4972222;29;20165;-88
2022/01/01 08:35:31;;;;;;;6.30;3.73;;;;;;;10.70;79.32;98959.41;4970669;29;20201;-89
2022/01/01 08:37:57;;;;;;;10.20;5.87;;;;;;;11.05;79.04;99002.03;4969002;29;20195;-89
2022/01/01 08:40:25;;;;;;;12.23;7.33;;;;;;;10.95;79.36;98989.84;4955883;29;20224;-89
2022/01/01 08:42:50;;;;;;;7.70;4.80;;;;;;;10.67;79.29;98936.50;4953434;29;20173;-90
2022/01/01 08:45:16;;;;;;;5.80;4.23;;;;;;;10.86;79.39;98991.19;4968227;29;20227;-87
2022/01/01 08:47:42;;;;;;;7.07;4.80;;;;;;;11.02;79.96;99016.25;4970308;29;20165;-90
2022/01/01 08:50:09;;;;;;;7.33;3.80;;;;;;;10.72;80.59;98995.75;4971276;29;20185;-89
2022/01/01 08:52:35;;;;;;;6.23;4.17;;;;;;;10.70;80.87;98968.66;4952800;29;20173;-90
2022/01/01 08:55:01;;;;;;;11.27;6.67;;;;;;;12.90;81.27;99340.78;4951341;29;20204;-89
2022/01/01 08:57:29;;;;;;;18.23;10.13;;;;;;;10.93;80.14;98977.94;4969253;28;20201;-90
2022/01/01 08:59:55;;;;;;;10.23;6.53;;;;;;;11.43;79.71;99060.75;4967684;29;20183;-89
2022/01/01 09:02:21;;;;;;;7.70;4.60;;;;;;;11.54;78.63;99041.72;4970795;29;20638;-90
2022/01/01 09:04:46;;;;;;;8.37;5.07;;;;;;;12.72;78.74;99223.31;4968166;29;20226;-89
2022/01/01 09:07:13;;;;;;;7.43;4.00;;;;;;;11.63;77.90;98993.84;4971170;29;20161;-89
2022/01/01 09:09:39;;;;;;;5.60;3.10;;;;;;;11.87;77.50;99004.81;4954490;29;20208;-91
2022/01/01 09:12:07;;;;;;;16.97;9.77;;;;;;;13.93;76.58;99303.34;4951539;29;20172;-89
2022/01/01 09:14:33;;;;;;;16.50;8.57;;;;;;;12.33;77.29;99018.13;4952484;29;20192;-89
2022/01/01 09:16:59;;;;;;;8.63;4.67;;;;;;;12.33;77.46;98991.91;4969772;29;20184;-89
2022/01/01 09:19:24;;;;;;;13.23;8.73;;;;;;;13.79;78.05;99256.31;4970213;29;20270;-89
2022/01/01 09:21:50;;;;;;;6.17;3.23;;;;;;;13.83;77.58;99222.47;4968464;29;20210;-90
2022/01/01 09:24:16;;;;;;;15.00;8.33;;;;;;;12.90;77.73;99044.41;4969726;29;20173;-90
2022/01/01 09:26:42;;;;;;;7.40;4.43;;;;;;;13.27;77.78;99091.19;4970078;29;20747;-89
2022/01/01 09:29:12;;;;;;;7.50;4.43;;;;;;;13.04;77.82;99001.59;4967886;29;20173;-89
2022/01/01 09:31:39;;;;;;;4.73;3.37;;;;;;;14.63;77.93;99286.66;4938209;29;20181;-90
2022/01/01 09:34:05;;;;;;;3.60;2.63;;;;;;;13.60;77.34;99113.31;4972021;29;20168;-89
2022/01/01 09:36:31;;;;;;;4.67;3.50;;;;;;;13.12;77.11;99038.28;4971485;29;20165;-89
2022/01/01 09:38:57;;;;;;;3.40;2.50;;;;;;;13.22;77.65;99124.13;4951907;29;20177;-89
2022/01/01 09:41:23;;;;;;;6.27;4.30;;;;;;;13.35;77.98;99110.09;4965682;28;20224;-89
2022/01/01 09:43:53;;;;;;;7.30;4.07;;;;;;;15.69;79.55;99557.19;4966125;29;20184;-90
2022/01/01 09:46:19;;;;;;;6.47;4.10;;;;;;;12.03;78.86;98942.78;4967841;29;20169;-88
2022/01/01 09:48:45;;;;;;;4.90;2.90;;;;;;;12.19;79.87;99006.72;4949781;29;20180;-89
2022/01/01 09:51:11;;;;;;;6.23;4.00;;;;;;;12.25;80.34;99047.50;4964514;29;20180;-88
2022/01/01 09:53:40;;;;;;;6.57;4.30;;;;;;;12.63;80.75;99096.06;4965940;29;20240;-88
2022/01/01 09:56:06;;;;;;;5.87;4.03;;;;;;;14.22;80.05;99339.81;4971272;29;20199;-90
2022/01/01 09:58:33;;;;;;;13.27;7.03;;;;;;;13.84;79.16;99239.50;4967859;29;20181;-89
2022/01/01 10:01:00;;;;;;;14.57;8.23;;;;;;;12.70;78.14;98993.81;4966211;29;20177;-88
2022/01/01 10:03:37;;;;;;;6.10;3.83;;;;;;;12.84;77.22;99005.25;4965082;29;20186;-91
2022/01/01 10:06:08;;;;;;;7.50;3.67;;;;;;;12.79;77.15;98989.88;4951973;29;20172;-90
2022/01/01 10:08:38;;;;;;;17.60;8.00;;;;;;;12.30;77.65;98898.78;4965890;29;20215;-89
2022/01/01 10:11:03;;;;;;;8.40;4.30;;;;;;;13.45;77.27;99081.53;4949408;29;20183;-88
2022/01/01 10:13:32;;;;;;;10.47;4.73;;;;;;;13.82;77.48;99150.38;4964357;29;20169;-87
2022/01/01 10:15:59;;;;;;;21.60;9.10;;;;;;;13.26;77.43;99019.19;4965666;29;20215;-90
2022/01/01 10:18:28;;;;;;;9.00;5.83;;;;;;;14.77;76.25;99221.63;4967029;29;20204;-90
2022/01/01 10:21:08;;;;;;;13.47;7.67;;;;;;;14.94;76.43;99208.41;4966441;29;20263;-89
2022/01/01 10:23:37;;;;;;;5.67;3.70;;;;;;;14.32;76.23;99077.88;4966749;29;20203;-89
2022/01/01 10:29:17;;;;;;;5.23;2.97;;;;;;;15.89;74.73;99335.59;4969094;29;20207;-85
2022/01/01 10:32:02;;;;;;;7.90;4.70;;;;;;;13.68;73.96;98958.34;4973911;29;20180;-89
2022/01/01 10:34:29;;;;;;;4.93;3.20;;;;;;;13.95;73.43;99029.41;4972755;29;20661;-90
2022/01/01 10:36:55;;;;;;;5.23;3.33;;;;;;;16.67;73.37;99515.31;4967370;29;20187;-89
2022/01/01 10:39:22;;;;;;;4.93;3.30;;;;;;;13.79;72.06;98962.00;4949388;29;20672;-89
2022/01/01 10:42:03;;;;;;;5.43;3.40;;;;;;;14.65;70.93;99071.00;4949868;29;20307;-89
2022/01/01 10:44:36;;;;;;;3.23;2.40;;;;;;;16.30;69.00;99293.88;4953289;29;20180;-90
2022/01/01 10:47:06;;;;;;;4.17;2.73;;;;;;;14.46;69.27;99028.09;4969806;29;20160;-89
2022/01/01 10:52:13;;;;;;;4.73;3.33;;;;;;;16.87;69.94;99501.22;4969269;29;20165;-90
2022/01/01 10:54:58;;;;;;;4.37;2.60;;;;;;;15.49;70.83;99297.28;4971189;29;20224;-88
2022/01/01 10:57:26;;;;;;;4.40;3.00;;;;;;;13.48;70.08;98945.19;4970089;29;20236;-90
2022/01/01 11:00:10;;;;;;;5.03;3.63;;;;;;;16.95;68.56;99384.56;4968681;29;20204;-88
2022/01/01 11:02:37;;;;;;;5.03;2.73;;;;;;;15.14;67.69;99051.63;4971298;29;20188;-88
2022/01/01 11:05:03;;;;;;;3.73;2.50;;;;;;;15.32;67.15;99057.09;4972299;29;20224;-88
2022/01/01 11:07:32;;;;;;;4.73;3.03;;;;;;;16.30;65.86;99150.81;4971103;29;20153;-89
2022/01/01 11:09:59;;;;;;;3.47;2.50;;;;;;;17.06;65.62;99301.22;4969772;29;20178;-88
2022/01/01 11:12:27;;;;;;;3.83;2.70;;;;;;;15.19;65.13;98932.75;4967334;29;20173;-91
2022/01/01 11:15:03;;;;;;;5.43;3.13;;;;;;;15.02;65.23;98924.78;4968496;29;20661;-90
2022/01/01 11:17:30;;;;;;;5.50;3.40;;;;;;;16.26;66.38;99191.63;4969642;29;20168;-87
2022/01/01 11:19:57;;;;;;;8.13;5.60;;;;;;;15.91;67.47;99189.25;4967785;29;20169;-90
2022/01/01 11:22:25;;;;;;;4.37;2.83;;;;;;;14.25;68.06;98943.56;4967141;29;20377;-90
2022/01/01 11:24:52;;;;;;;3.87;2.70;;;;;;;16.42;68.16;99313.69;4974841;29;20188;-88
2022/01/01 11:27:19;;;;;;;6.53;4.20;;;;;;;16.07;67.93;99240.63;4954190;29;20193;-89
2022/01/01 11:29:50;;;;;;;5.73;2.80;;;;;;;16.16;66.57;99189.72;4935501;29;20192;-89
2022/01/01 11:32:20;;;;;;;6.43;3.83;;;;;;;14.96;66.62;98946.75;4936243;29;20770;-88
2022/01/01 11:34:49;;;;;;;4.83;3.50;;;;;;;15.16;66.10;98948.00;4948489;29;20410;-90
2022/01/01 11:37:15;;;;;;;7.03;3.90;;;;;;;17.38;65.21;99280.41;4932100;29;20208;-89
2022/01/01 11:39:42;;;;;;;5.23;3.30;;;;;;;15.12;66.26;98964.03;4932844;29;20221;-92
2022/01/01 11:42:14;;;;;;;5.07;3.93;;;;;;;15.50;67.06;99011.53;4931107;29;20205;-91
2022/01/01 11:44:50;;;;;;;3.80;2.53;;;;;;;14.73;66.72;98920.81;4932040;29;20276;-88